sensor_id;sensor_type;location;lat;lon;timestamp;temperature;humidity
19007;DHT22;9636;47.382;8.480;2022-08-02T03:26:59;18.10;99.90
19007;DHT22;9636;47.382;8.480;2022-08-02T03:29:29;18.10;99.90
19007;DHT22;9636;47.382;8.480;2022-08-02T03:31:58;18.00;99.90
19007;DHT22;9636;47.382;8.480;2022-08-02T03:34:26;18.10;99.90
19007;DHT22;9636;47.382;8.480;2022-08-02T03:36:54;18.00;99.90
19007;DHT22;9636;47.382;8.480;2022-08-02T03:39:22;18.10;99.90
19007;DHT22;9636;47.382;8.480;2022-08-02T03:41:49;18.20;99.90
19007;DHT22;9636;47.382;8.480;2022-08-02T03:44:18;18.40;99.90
19007;DHT22;9636;47.382;8.480;2022-08-02T03:46:45;18.20;99.90
19007;DHT22;9636;47.382;8.480;2022-08-02T03:49:15;18.20;99.90
19007;DHT22;9636;47.382;8.480;2022-08-02T03:51:43;18.10;99.90
19007;DHT22;9636;47.382;8.480;2022-08-02T03:54:10;18.10;99.90
19007;DHT22;9636;47.382;8.480;2022-08-02T03:56:38;18.30;99.90
19007;DHT22;9636;47.382;8.480;2022-08-02T03:59:09;18.20;99.90
19007;DHT22;9636;47.382;8.480;2022-08-02T04:01:38;18.10;99.90
19007;DHT22;9636;47.382;8.480;2022-08-02T04:04:05;18.30;99.90
19007;DHT22;9636;47.382;8.480;2022-08-02T04:06:32;18.20;99.90
19007;DHT22;9636;47.382;8.480;2022-08-02T04:08:59;18.00;99.90
19007;DHT22;9636;47.382;8.480;2022-08-02T04:11:26;18.20;99.90
19007;DHT22;9636;47.382;8.480;2022-08-02T04:13:57;18.30;99.90
19007;DHT22;9636;47.382;8.480;2022-08-02T04:16:28;18.40;99.90
19007;DHT22;9636;47.382;8.480;2022-08-02T04:19:00;18.40;99.90
19007;DHT22;9636;47.382;8.480;2022-08-02T04:21:31;18.30;99.90
19007;DHT22;9636;47.382;8.480;2022-08-02T04:24:01;18.20;99.90
19007;DHT22;9636;47.382;8.480;2022-08-02T04:26:30;18.00;99.90
19007;DHT22;9636;47.382;8.480;2022-08-02T04:28:58;18.10;99.90
19007;DHT22;9636;47.382;8.480;2022-08-02T04:31:25;18.20;99.90
19007;DHT22;9636;47.382;8.480;2022-08-02T04:33:52;18.40;99.90
19007;DHT22;9636;47.382;8.480;2022-08-02T04:36:21;18.50;99.90
19007;DHT22;9636;47.382;8.480;2022-08-02T04:38:48;18.50;99.90
19007;DHT22;9636;47.382;8.480;2022-08-02T04:41:15;18.50;99.90
19007;DHT22;9636;47.382;8.480;2022-08-02T04:43:42;18.40;99.90
19007;DHT22;9636;47.382;8.480;2022-08-02T04:46:09;18.40;99.90
19007;DHT22;9636;47.382;8.480;2022-08-02T04:48:35;18.70;99.90
19007;DHT22;9636;47.382;8.480;2022-08-02T04:51:02;18.80;99.90
19007;DHT22;9636;47.382;8.480;2022-08-02T04:53:31;18.70;99.90
19007;DHT22;9636;47.382;8.480;2022-08-02T04:55:58;18.70;99.90
19007;DHT22;9636;47.382;8.480;2022-08-02T04:58:24;18.70;99.90
19007;DHT22;9636;47.382;8.480;2022-08-02T05:00:51;18.80;99.90
19007;DHT22;9636;47.382;8.480;2022-08-02T05:03:18;19.00;99.90
19007;DHT22;9636;47.382;8.480;2022-08-02T05:05:45;19.30;99.90
19007;DHT22;9636;47.382;8.480;2022-08-02T05:08:12;19.50;99.90
19007;DHT22;9636;47.382;8.480;2022-08-02T05:10:40;19.70;99.90
19007;DHT22;9636;47.382;8.480;2022-08-02T05:13:07;19.80;99.90
19007;DHT22;9636;47.382;8.480;2022-08-02T05:15:34;19.90;99.90
19007;DHT22;9636;47.382;8.480;2022-08-02T05:18:00;20.00;99.90
19007;DHT22;9636;47.382;8.480;2022-08-02T05:20:28;19.90;99.90
19007;DHT22;9636;47.382;8.480;2022-08-02T05:22:55;20.00;99.90
19007;DHT22;9636;47.382;8.480;2022-08-02T05:25:22;20.10;99.90
19007;DHT22;9636;47.382;8.480;2022-08-02T05:27:50;20.20;99.90
19007;DHT22;9636;47.382;8.480;2022-08-02T05:30:17;20.40;99.90
19007;DHT22;9636;47.382;8.480;2022-08-02T05:32:45;20.40;99.90
19007;DHT22;9636;47.382;8.480;2022-08-02T05:35:13;20.60;99.90
19007;DHT22;9636;47.382;8.480;2022-08-02T05:37:42;20.70;99.90
19007;DHT22;9636;47.382;8.480;2022-08-02T05:40:12;20.80;99.90
19007;DHT22;9636;47.382;8.480;2022-08-02T05:42:39;21.00;99.90
19007;DHT22;9636;47.382;8.480;2022-08-02T05:45:16;21.10;99.90
19007;DHT22;9636;47.382;8.480;2022-08-02T06:32:09;22.50;99.90
19007;DHT22;9636;47.382;8.480;2022-08-02T06:34:37;22.70;99.90
19007;DHT22;9636;47.382;8.480;2022-08-02T06:37:12;22.80;99.90
19007;DHT22;9636;47.382;8.480;2022-08-02T06:39:44;23.10;99.90
19007;DHT22;9636;47.382;8.480;2022-08-02T06:42:14;23.20;99.90
19007;DHT22;9636;47.382;8.480;2022-08-02T06:44:41;23.00;99.90
19007;DHT22;9636;47.382;8.480;2022-08-02T06:47:10;23.00;99.90
19007;DHT22;9636;47.382;8.480;2022-08-02T06:49:37;23.30;99.90
19007;DHT22;9636;47.382;8.480;2022-08-02T06:52:04;23.40;99.90
19007;DHT22;9636;47.382;8.480;2022-08-02T06:54:31;23.20;99.90
19007;DHT22;9636;47.382;8.480;2022-08-02T06:56:58;23.10;99.90
19007;DHT22;9636;47.382;8.480;2022-08-02T06:59:25;22.80;99.90
19007;DHT22;9636;47.382;8.480;2022-08-02T07:01:52;22.60;99.90
19007;DHT22;9636;47.382;8.480;2022-08-02T07:04:21;22.50;99.90
19007;DHT22;9636;47.382;8.480;2022-08-02T07:06:48;22.60;99.90
19007;DHT22;9636;47.382;8.480;2022-08-02T07:09:14;22.60;99.90
19007;DHT22;9636;47.382;8.480;2022-08-02T07:11:41;22.80;99.90
19007;DHT22;9636;47.382;8.480;2022-08-02T07:14:08;22.50;99.90
19007;DHT22;9636;47.382;8.480;2022-08-02T07:16:35;22.60;99.90
19007;DHT22;9636;47.382;8.480;2022-08-02T07:19:02;22.70;99.90
19007;DHT22;9636;47.382;8.480;2022-08-02T07:21:30;22.80;99.90
19007;DHT22;9636;47.382;8.480;2022-08-02T07:23:57;22.70;99.90
19007;DHT22;9636;47.382;8.480;2022-08-02T07:26:24;23.00;99.90
19007;DHT22;9636;47.382;8.480;2022-08-02T07:28:51;23.00;99.90
19007;DHT22;9636;47.382;8.480;2022-08-02T07:31:19;23.30;99.90
19007;DHT22;9636;47.382;8.480;2022-08-02T07:33:46;23.50;99.90
19007;DHT22;9636;47.382;8.480;2022-08-02T07:36:13;23.70;99.90
19007;DHT22;9636;47.382;8.480;2022-08-02T07:38:41;23.40;99.90
19007;DHT22;9636;47.382;8.480;2022-08-02T07:41:08;23.80;99.90
19007;DHT22;9636;47.382;8.480;2022-08-02T07:43:35;24.00;99.90
19007;DHT22;9636;47.382;8.480;2022-08-02T07:46:01;24.40;99.90
19007;DHT22;9636;47.382;8.480;2022-08-02T07:48:28;24.30;99.90
19007;DHT22;9636;47.382;8.480;2022-08-02T07:50:56;24.50;99.90
19007;DHT22;9636;47.382;8.480;2022-08-02T07:53:23;24.70;99.90
19007;DHT22;9636;47.382;8.480;2022-08-02T07:55:51;24.90;99.90
19007;DHT22;9636;47.382;8.480;2022-08-02T07:58:17;24.70;99.90
19007;DHT22;9636;47.382;8.480;2022-08-02T08:00:44;24.60;99.90
19007;DHT22;9636;47.382;8.480;2022-08-02T08:03:11;24.60;99.90
19007;DHT22;9636;47.382;8.480;2022-08-02T08:05:38;24.60;99.90
19007;DHT22;9636;47.382;8.480;2022-08-02T08:08:05;24.90;99.90
19007;DHT22;9636;47.382;8.480;2022-08-02T08:10:32;25.20;99.90
19007;DHT22;9636;47.382;8.480;2022-08-02T08:13:00;25.10;99.90
19007;DHT22;9636;47.382;8.480;2022-08-02T08:15:27;25.20;99.90
19007;DHT22;9636;47.382;8.480;2022-08-02T08:17:54;25.30;99.90
19007;DHT22;9636;47.382;8.480;2022-08-02T08:20:20;25.40;99.90
19007;DHT22;9636;47.382;8.480;2022-08-02T08:22:47;25.40;99.90
19007;DHT22;9636;47.382;8.480;2022-08-02T08:25:14;25.00;99.90
19007;DHT22;9636;47.382;8.480;2022-08-02T08:27:47;25.30;99.90
19007;DHT22;9636;47.382;8.480;2022-08-02T08:30:15;25.70;99.90
19007;DHT22;9636;47.382;8.480;2022-08-02T08:32:43;25.70;99.90
19007;DHT22;9636;47.382;8.480;2022-08-02T08:35:10;25.40;99.90
19007;DHT22;9636;47.382;8.480;2022-08-02T08:37:37;25.20;99.90
19007;DHT22;9636;47.382;8.480;2022-08-02T08:40:05;24.60;99.90
19007;DHT22;9636;47.382;8.480;2022-08-02T08:42:32;24.90;99.90
19007;DHT22;9636;47.382;8.480;2022-08-02T08:44:59;24.40;99.90
19007;DHT22;9636;47.382;8.480;2022-08-02T08:47:32;24.40;99.90
19007;DHT22;9636;47.382;8.480;2022-08-02T08:50:01;24.80;99.90
19007;DHT22;9636;47.382;8.480;2022-08-02T08:52:32;24.70;99.90
19007;DHT22;9636;47.382;8.480;2022-08-02T08:55:05;24.90;99.90
19007;DHT22;9636;47.382;8.480;2022-08-02T08:57:34;24.60;99.90
19007;DHT22;9636;47.382;8.480;2022-08-02T09:00:05;25.00;99.90
19007;DHT22;9636;47.382;8.480;2022-08-02T09:02:35;25.50;99.90
19007;DHT22;9636;47.382;8.480;2022-08-02T09:05:08;25.00;99.90
19007;DHT22;9636;47.382;8.480;2022-08-02T09:07:35;25.10;99.90
19007;DHT22;9636;47.382;8.480;2022-08-02T09:10:32;25.40;99.90
19007;DHT22;9636;47.382;8.480;2022-08-02T09:13:06;25.20;99.90
19007;DHT22;9636;47.382;8.480;2022-08-02T09:15:33;25.40;99.90
19007;DHT22;9636;47.382;8.480;2022-08-02T09:18:02;25.80;99.90
19007;DHT22;9636;47.382;8.480;2022-08-02T09:20:29;25.70;99.90
19007;DHT22;9636;47.382;8.480;2022-08-02T09:23:05;26.10;99.90
19007;DHT22;9636;47.382;8.480;2022-08-02T09:25:32;26.40;99.90
19007;DHT22;9636;47.382;8.480;2022-08-02T09:27:59;26.60;99.90
19007;DHT22;9636;47.382;8.480;2022-08-02T09:30:26;25.70;99.90
19007;DHT22;9636;47.382;8.480;2022-08-02T09:32:53;25.30;99.90
19007;DHT22;9636;47.382;8.480;2022-08-02T09:35:32;25.50;99.90
19007;DHT22;9636;47.382;8.480;2022-08-02T09:38:08;25.80;99.90
19007;DHT22;9636;47.382;8.480;2022-08-02T09:40:35;26.00;99.90
19007;DHT22;9636;47.382;8.480;2022-08-02T09:43:03;25.90;99.90
19007;DHT22;9636;47.382;8.480;2022-08-02T09:45:31;25.70;99.90
19007;DHT22;9636;47.382;8.480;2022-08-02T09:48:00;25.50;99.90
19007;DHT22;9636;47.382;8.480;2022-08-02T09:50:27;25.70;99.90
19007;DHT22;9636;47.382;8.480;2022-08-02T09:52:56;26.00;99.90
19007;DHT22;9636;47.382;8.480;2022-08-02T09:55:23;26.20;99.90
19007;DHT22;9636;47.382;8.480;2022-08-02T09:57:51;26.80;99.90
19007;DHT22;9636;47.382;8.480;2022-08-02T10:00:19;26.60;99.90
19007;DHT22;9636;47.382;8.480;2022-08-02T10:03:06;26.30;99.90
19007;DHT22;9636;47.382;8.480;2022-08-02T10:05:47;26.40;99.90
19007;DHT22;9636;47.382;8.480;2022-08-02T10:08:16;26.30;99.90
19007;DHT22;9636;47.382;8.480;2022-08-02T10:10:44;26.30;99.90
19007;DHT22;9636;47.382;8.480;2022-08-02T10:13:11;26.10;99.90
19007;DHT22;9636;47.382;8.480;2022-08-02T10:15:38;25.90;99.90
19007;DHT22;9636;47.382;8.480;2022-08-02T10:18:06;26.00;99.90
19007;DHT22;9636;47.382;8.480;2022-08-02T10:20:37;26.00;99.90
19007;DHT22;9636;47.382;8.480;2022-08-02T10:23:07;26.30;99.90
19007;DHT22;9636;47.382;8.480;2022-08-02T10:25:37;26.40;99.90
19007;DHT22;9636;47.382;8.480;2022-08-02T10:28:05;26.50;99.90
19007;DHT22;9636;47.382;8.480;2022-08-02T10:30:34;26.50;99.90
19007;DHT22;9636;47.382;8.480;2022-08-02T10:33:03;26.60;99.90
19007;DHT22;9636;47.382;8.480;2022-08-02T10:35:34;26.40;99.90
19007;DHT22;9636;47.382;8.480;2022-08-02T10:38:04;26.70;99.90
19007;DHT22;9636;47.382;8.480;2022-08-02T10:40:47;26.90;99.90
19007;DHT22;9636;47.382;8.480;2022-08-02T10:43:39;26.50;99.90
19007;DHT22;9636;47.382;8.480;2022-08-02T10:46:28;26.20;99.90
19007;DHT22;9636;47.382;8.480;2022-08-02T10:49:05;26.10;99.90
19007;DHT22;9636;47.382;8.480;2022-08-02T10:54:36;26.50;99.90
19007;DHT22;9636;47.382;8.480;2022-08-02T10:57:17;26.30;99.90
19007;DHT22;9636;47.382;8.480;2022-08-02T10:59:44;26.10;99.90
19007;DHT22;9636;47.382;8.480;2022-08-02T11:02:11;26.00;99.90
19007;DHT22;9636;47.382;8.480;2022-08-02T11:05:01;25.90;99.90
19007;DHT22;9636;47.382;8.480;2022-08-02T11:07:34;26.10;99.90
19007;DHT22;9636;47.382;8.480;2022-08-02T11:10:35;26.00;99.90
19007;DHT22;9636;47.382;8.480;2022-08-02T11:13:07;26.00;99.90
19007;DHT22;9636;47.382;8.480;2022-08-02T11:15:52;25.90;99.90
19007;DHT22;9636;47.382;8.480;2022-08-02T11:18:22;25.90;99.90
19007;DHT22;9636;47.382;8.480;2022-08-02T11:21:20;26.00;99.90
19007;DHT22;9636;47.382;8.480;2022-08-02T11:23:48;26.10;99.90
19007;DHT22;9636;47.382;8.480;2022-08-02T11:26:43;26.00;99.90
19007;DHT22;9636;47.382;8.480;2022-08-02T11:29:12;26.10;99.90
19007;DHT22;9636;47.382;8.480;2022-08-02T11:31:41;26.10;99.90
19007;DHT22;9636;47.382;8.480;2022-08-02T11:34:09;26.20;99.90
19007;DHT22;9636;47.382;8.480;2022-08-02T11:36:47;26.20;99.90
19007;DHT22;9636;47.382;8.480;2022-08-02T11:39:16;26.40;99.90
19007;DHT22;9636;47.382;8.480;2022-08-02T11:41:48;26.40;99.90
19007;DHT22;9636;47.382;8.480;2022-08-02T11:44:16;26.40;99.90
19007;DHT22;9636;47.382;8.480;2022-08-02T11:46:43;26.40;99.90
19007;DHT22;9636;47.382;8.480;2022-08-02T11:49:12;26.40;99.90
19007;DHT22;9636;47.382;8.480;2022-08-02T11:51:50;26.40;99.90
19007;DHT22;9636;47.382;8.480;2022-08-02T11:54:53;26.50;99.90
19007;DHT22;9636;47.382;8.480;2022-08-02T11:57:21;26.50;99.90
19007;DHT22;9636;47.382;8.480;2022-08-02T11:59:52;26.60;99.90
19007;DHT22;9636;47.382;8.480;2022-08-02T12:02:20;26.50;99.90
19007;DHT22;9636;47.382;8.480;2022-08-02T12:04:54;26.50;99.90
19007;DHT22;9636;47.382;8.480;2022-08-02T12:07:25;26.50;99.90
19007;DHT22;9636;47.382;8.480;2022-08-02T12:09:58;26.40;99.90
19007;DHT22;9636;47.382;8.480;2022-08-02T12:12:25;26.60;99.90
19007;DHT22;9636;47.382;8.480;2022-08-02T12:14:53;26.50;99.90
19007;DHT22;9636;47.382;8.480;2022-08-02T12:17:22;26.60;99.90
19007;DHT22;9636;47.382;8.480;2022-08-02T12:20:07;26.60;99.90
19007;DHT22;9636;47.382;8.480;2022-08-02T12:22:33;26.60;99.90
19007;DHT22;9636;47.382;8.480;2022-08-02T12:25:15;26.70;99.90
19007;DHT22;9636;47.382;8.480;2022-08-02T12:27:42;26.90;99.90
19007;DHT22;9636;47.382;8.480;2022-08-02T12:30:13;27.00;99.90
19007;DHT22;9636;47.382;8.480;2022-08-02T12:32:40;27.00;99.90
19007;DHT22;9636;47.382;8.480;2022-08-02T12:35:09;27.00;99.90
19007;DHT22;9636;47.382;8.480;2022-08-02T12:37:38;27.00;99.90
19007;DHT22;9636;47.382;8.480;2022-08-02T12:40:17;26.90;99.90
19007;DHT22;9636;47.382;8.480;2022-08-02T12:42:45;27.10;99.90
19007;DHT22;9636;47.382;8.480;2022-08-02T12:45:14;27.00;99.90
19007;DHT22;9636;47.382;8.480;2022-08-02T12:47:44;27.10;99.90
19007;DHT22;9636;47.382;8.480;2022-08-02T12:50:12;27.10;99.90
19007;DHT22;9636;47.382;8.480;2022-08-02T12:52:40;27.00;99.90
19007;DHT22;9636;47.382;8.480;2022-08-02T12:55:20;27.00;99.90
19007;DHT22;9636;47.382;8.480;2022-08-02T12:57:52;27.10;99.90
19007;DHT22;9636;47.382;8.480;2022-08-02T13:00:25;27.10;99.90
19007;DHT22;9636;47.382;8.480;2022-08-02T13:02:53;27.10;99.90
19007;DHT22;9636;47.382;8.480;2022-08-02T13:05:20;27.10;99.90
19007;DHT22;9636;47.382;8.480;2022-08-02T13:07:47;27.20;99.90
19007;DHT22;9636;47.382;8.480;2022-08-02T13:10:14;27.20;99.90
19007;DHT22;9636;47.382;8.480;2022-08-02T13:12:41;27.30;99.90
19007;DHT22;9636;47.382;8.480;2022-08-02T13:15:09;27.20;99.90
19007;DHT22;9636;47.382;8.480;2022-08-02T13:17:37;27.10;99.90
19007;DHT22;9636;47.382;8.480;2022-08-02T13:20:05;27.10;99.90
19007;DHT22;9636;47.382;8.480;2022-08-02T13:22:33;27.10;99.90
19007;DHT22;9636;47.382;8.480;2022-08-02T13:25:00;27.10;99.90
19007;DHT22;9636;47.382;8.480;2022-08-02T13:27:27;27.00;99.90
19007;DHT22;9636;47.382;8.480;2022-08-02T13:29:55;27.00;99.90
19007;DHT22;9636;47.382;8.480;2022-08-02T13:32:23;27.10;99.90
19007;DHT22;9636;47.382;8.480;2022-08-02T13:34:52;27.30;99.90
19007;DHT22;9636;47.382;8.480;2022-08-02T13:37:19;27.40;99.90
19007;DHT22;9636;47.382;8.480;2022-08-02T13:39:46;27.30;99.90
19007;DHT22;9636;47.382;8.480;2022-08-02T13:42:13;27.30;99.90
19007;DHT22;9636;47.382;8.480;2022-08-02T13:44:40;27.30;99.90
19007;DHT22;9636;47.382;8.480;2022-08-02T13:47:07;27.30;99.90
19007;DHT22;9636;47.382;8.480;2022-08-02T13:49:36;27.30;99.90
19007;DHT22;9636;47.382;8.480;2022-08-02T13:52:04;27.40;99.90
19007;DHT22;9636;47.382;8.480;2022-08-02T13:54:31;27.40;99.90
19007;DHT22;9636;47.382;8.480;2022-08-02T13:56:58;27.30;99.90
19007;DHT22;9636;47.382;8.480;2022-08-02T13:59:25;27.40;99.90
19007;DHT22;9636;47.382;8.480;2022-08-02T14:01:52;27.50;99.90
19007;DHT22;9636;47.382;8.480;2022-08-02T14:04:21;27.50;99.90
19007;DHT22;9636;47.382;8.480;2022-08-02T14:06:48;27.50;99.90
19007;DHT22;9636;47.382;8.480;2022-08-02T14:09:16;27.50;99.90
19007;DHT22;9636;47.382;8.480;2022-08-02T14:11:43;27.60;99.90
19007;DHT22;9636;47.382;8.480;2022-08-02T14:14:10;27.50;99.90
19007;DHT22;9636;47.382;8.480;2022-08-02T14:16:37;27.50;99.90
19007;DHT22;9636;47.382;8.480;2022-08-02T14:19:03;27.40;99.90
19007;DHT22;9636;47.382;8.480;2022-08-02T14:21:30;27.40;99.90
19007;DHT22;9636;47.382;8.480;2022-08-02T14:23:57;27.50;99.90
19007;DHT22;9636;47.382;8.480;2022-08-02T14:26:25;27.50;99.90
19007;DHT22;9636;47.382;8.480;2022-08-02T14:28:52;27.50;99.90
19007;DHT22;9636;47.382;8.480;2022-08-02T14:31:19;27.50;99.90
19007;DHT22;9636;47.382;8.480;2022-08-02T14:33:46;27.60;99.90
19007;DHT22;9636;47.382;8.480;2022-08-02T14:36:12;27.50;99.90
19007;DHT22;9636;47.382;8.480;2022-08-02T14:38:39;27.50;99.90
19007;DHT22;9636;47.382;8.480;2022-08-02T14:41:06;27.60;99.90
19007;DHT22;9636;47.382;8.480;2022-08-02T14:43:34;27.70;99.90
19007;DHT22;9636;47.382;8.480;2022-08-02T14:46:19;27.70;99.90
19007;DHT22;9636;47.382;8.480;2022-08-02T14:48:45;27.80;99.90
19007;DHT22;9636;47.382;8.480;2022-08-02T14:51:12;27.60;99.90
19007;DHT22;9636;47.382;8.480;2022-08-02T14:53:39;27.70;99.90
19007;DHT22;9636;47.382;8.480;2022-08-02T14:56:06;27.60;99.90
19007;DHT22;9636;47.382;8.480;2022-08-02T14:58:34;27.70;99.90
19007;DHT22;9636;47.382;8.480;2022-08-02T15:01:01;27.80;99.90
19007;DHT22;9636;47.382;8.480;2022-08-02T15:03:28;27.90;99.90
19007;DHT22;9636;47.382;8.480;2022-08-02T15:05:54;27.90;99.90
19007;DHT22;9636;47.382;8.480;2022-08-02T15:08:21;27.90;99.90
19007;DHT22;9636;47.382;8.480;2022-08-02T15:10:48;28.00;99.90
19007;DHT22;9636;47.382;8.480;2022-08-02T15:13:15;28.10;99.90
19007;DHT22;9636;47.382;8.480;2022-08-02T15:15:55;28.10;99.90
19007;DHT22;9636;47.382;8.480;2022-08-02T15:18:29;28.10;99.90
19007;DHT22;9636;47.382;8.480;2022-08-02T15:21:10;28.20;99.90
19007;DHT22;9636;47.382;8.480;2022-08-02T15:23:37;28.40;99.90
19007;DHT22;9636;47.382;8.480;2022-08-02T15:26:05;28.40;99.90
19007;DHT22;9636;47.382;8.480;2022-08-02T15:28:32;28.30;99.90
19007;DHT22;9636;47.382;8.480;2022-08-02T15:31:00;28.20;99.90
19007;DHT22;9636;47.382;8.480;2022-08-02T15:33:27;28.20;99.90
19007;DHT22;9636;47.382;8.480;2022-08-02T15:35:54;28.20;99.90
19007;DHT22;9636;47.382;8.480;2022-08-02T15:38:20;28.20;99.90
19007;DHT22;9636;47.382;8.480;2022-08-02T15:40:48;28.10;99.90
19007;DHT22;9636;47.382;8.480;2022-08-02T15:43:14;28.00;99.90
19007;DHT22;9636;47.382;8.480;2022-08-02T15:45:41;28.10;99.90
19007;DHT22;9636;47.382;8.480;2022-08-02T15:48:09;28.00;99.90
19007;DHT22;9636;47.382;8.480;2022-08-02T15:50:36;27.90;99.90
19007;DHT22;9636;47.382;8.480;2022-08-02T15:53:03;27.80;99.90
19007;DHT22;9636;47.382;8.480;2022-08-02T15:55:29;27.80;99.90
19007;DHT22;9636;47.382;8.480;2022-08-02T15:57:56;27.70;99.90
19007;DHT22;9636;47.382;8.480;2022-08-02T16:00:23;27.80;99.90
19007;DHT22;9636;47.382;8.480;2022-08-02T16:02:50;27.70;99.90
19007;DHT22;9636;47.382;8.480;2022-08-02T16:05:18;27.60;99.90
19007;DHT22;9636;47.382;8.480;2022-08-02T16:07:45;27.60;99.90
19007;DHT22;9636;47.382;8.480;2022-08-02T16:10:12;27.60;99.90
19007;DHT22;9636;47.382;8.480;2022-08-02T16:12:39;27.50;99.90
19007;DHT22;9636;47.382;8.480;2022-08-02T16:15:07;27.50;99.90
19007;DHT22;9636;47.382;8.480;2022-08-02T16:17:34;27.40;99.90
19007;DHT22;9636;47.382;8.480;2022-08-02T16:20:01;27.40;99.90
19007;DHT22;9636;47.382;8.480;2022-08-02T16:22:29;27.40;99.90
19007;DHT22;9636;47.382;8.480;2022-08-02T16:24:56;27.30;99.90
19007;DHT22;9636;47.382;8.480;2022-08-02T16:27:22;27.30;99.90
19007;DHT22;9636;47.382;8.480;2022-08-02T16:29:49;27.30;99.90
19007;DHT22;9636;47.382;8.480;2022-08-02T16:32:16;27.20;99.90
19007;DHT22;9636;47.382;8.480;2022-08-02T16:34:43;27.20;99.90
19007;DHT22;9636;47.382;8.480;2022-08-02T16:37:10;27.10;99.90
19007;DHT22;9636;47.382;8.480;2022-08-02T16:39:38;27.00;99.90
19007;DHT22;9636;47.382;8.480;2022-08-02T16:42:05;26.90;99.90
19007;DHT22;9636;47.382;8.480;2022-08-02T16:44:32;26.90;99.90
19007;DHT22;9636;47.382;8.480;2022-08-02T16:46:59;26.90;99.90
19007;DHT22;9636;47.382;8.480;2022-08-02T16:49:26;26.90;99.90
19007;DHT22;9636;47.382;8.480;2022-08-02T16:51:52;27.00;99.90
19007;DHT22;9636;47.382;8.480;2022-08-02T16:54:19;26.90;99.90
19007;DHT22;9636;47.382;8.480;2022-08-02T16:56:49;26.80;99.90
19007;DHT22;9636;47.382;8.480;2022-08-02T16:59:16;26.80;99.90
19007;DHT22;9636;47.382;8.480;2022-08-02T17:01:42;26.70;99.90
19007;DHT22;9636;47.382;8.480;2022-08-02T17:04:09;26.70;99.90
19007;DHT22;9636;47.382;8.480;2022-08-02T17:06:36;26.60;99.90
19007;DHT22;9636;47.382;8.480;2022-08-02T17:09:03;26.60;99.90
19007;DHT22;9636;47.382;8.480;2022-08-02T17:11:30;26.60;99.90
19007;DHT22;9636;47.382;8.480;2022-08-02T17:13:59;26.60;99.90
19007;DHT22;9636;47.382;8.480;2022-08-02T17:16:26;26.60;99.90
19007;DHT22;9636;47.382;8.480;2022-08-02T17:18:53;26.50;99.90
19007;DHT22;9636;47.382;8.480;2022-08-02T17:21:20;26.50;99.90
19007;DHT22;9636;47.382;8.480;2022-08-02T17:23:49;26.30;99.90
19007;DHT22;9636;47.382;8.480;2022-08-02T17:40:51;26.00;99.90
19007;DHT22;9636;47.382;8.480;2022-08-02T17:50:24;25.80;99.90
19007;DHT22;9636;47.382;8.480;2022-08-02T17:53:23;25.70;99.90
19007;DHT22;9636;47.382;8.480;2022-08-02T17:55:51;25.60;99.90
19007;DHT22;9636;47.382;8.480;2022-08-02T17:58:18;25.60;99.90
19007;DHT22;9636;47.382;8.480;2022-08-02T18:00:45;25.50;99.90
19007;DHT22;9636;47.382;8.480;2022-08-02T18:03:12;25.50;99.90
19007;DHT22;9636;47.382;8.480;2022-08-02T18:05:38;25.40;99.90
19007;DHT22;9636;47.382;8.480;2022-08-02T18:08:13;25.30;99.90
19007;DHT22;9636;47.382;8.480;2022-08-02T18:10:40;25.20;99.90
19007;DHT22;9636;47.382;8.480;2022-08-02T18:13:08;25.20;99.90
19007;DHT22;9636;47.382;8.480;2022-08-02T18:15:35;25.10;99.90
19007;DHT22;9636;47.382;8.480;2022-08-02T18:18:02;25.00;99.90
19007;DHT22;9636;47.382;8.480;2022-08-02T18:20:29;25.00;99.90
19007;DHT22;9636;47.382;8.480;2022-08-02T18:22:56;24.80;99.90
19007;DHT22;9636;47.382;8.480;2022-08-02T18:25:22;24.80;99.90
19007;DHT22;9636;47.382;8.480;2022-08-02T18:27:49;24.70;99.90
19007;DHT22;9636;47.382;8.480;2022-08-02T18:30:18;24.60;99.90
19007;DHT22;9636;47.382;8.480;2022-08-02T18:32:45;24.50;99.90
19007;DHT22;9636;47.382;8.480;2022-08-02T18:35:11;24.40;99.90
19007;DHT22;9636;47.382;8.480;2022-08-02T18:37:38;24.40;99.90
19007;DHT22;9636;47.382;8.480;2022-08-02T18:40:06;24.40;99.90
19007;DHT22;9636;47.382;8.480;2022-08-02T18:42:34;24.30;99.90
19007;DHT22;9636;47.382;8.480;2022-08-02T18:45:01;24.20;99.90
19007;DHT22;9636;47.382;8.480;2022-08-02T18:47:29;24.10;99.90
19007;DHT22;9636;47.382;8.480;2022-08-02T18:49:56;24.10;99.90
19007;DHT22;9636;47.382;8.480;2022-08-02T18:52:23;24.00;99.90
19007;DHT22;9636;47.382;8.480;2022-08-02T18:54:50;24.00;99.90
19007;DHT22;9636;47.382;8.480;2022-08-02T18:57:17;23.90;99.90
19007;DHT22;9636;47.382;8.480;2022-08-02T18:59:44;23.90;99.90
19007;DHT22;9636;47.382;8.480;2022-08-02T19:02:15;23.80;99.90
19007;DHT22;9636;47.382;8.480;2022-08-02T19:04:44;23.70;99.90
19007;DHT22;9636;47.382;8.480;2022-08-02T19:07:10;23.70;99.90
19007;DHT22;9636;47.382;8.480;2022-08-02T19:09:37;23.70;99.90
19007;DHT22;9636;47.382;8.480;2022-08-02T19:12:05;23.60;99.90
19007;DHT22;9636;47.382;8.480;2022-08-02T19:14:31;23.50;99.90
19007;DHT22;9636;47.382;8.480;2022-08-02T19:16:58;23.50;99.90
19007;DHT22;9636;47.382;8.480;2022-08-02T19:19:25;23.40;99.90
19007;DHT22;9636;47.382;8.480;2022-08-02T19:21:54;23.40;99.90
19007;DHT22;9636;47.382;8.480;2022-08-02T19:24:21;23.40;99.90
19007;DHT22;9636;47.382;8.480;2022-08-02T19:26:48;23.30;99.90
19007;DHT22;9636;47.382;8.480;2022-08-02T19:29:15;23.20;99.90
19007;DHT22;9636;47.382;8.480;2022-08-02T19:31:43;23.20;99.90
19007;DHT22;9636;47.382;8.480;2022-08-02T19:34:09;23.10;99.90
19007;DHT22;9636;47.382;8.480;2022-08-02T19:36:36;23.10;99.90
19007;DHT22;9636;47.382;8.480;2022-08-02T19:39:04;23.10;99.90
19007;DHT22;9636;47.382;8.480;2022-08-02T19:41:31;23.10;99.90
19007;DHT22;9636;47.382;8.480;2022-08-02T19:43:58;23.00;99.90
19007;DHT22;9636;47.382;8.480;2022-08-02T19:46:25;23.00;99.90
19007;DHT22;9636;47.382;8.480;2022-08-02T19:48:52;22.90;99.90
19007;DHT22;9636;47.382;8.480;2022-08-02T19:51:19;22.90;99.90
19007;DHT22;9636;47.382;8.480;2022-08-02T19:53:46;22.90;99.90
19007;DHT22;9636;47.382;8.480;2022-08-02T19:56:14;22.90;99.90
19007;DHT22;9636;47.382;8.480;2022-08-02T19:58:41;22.90;99.90
19007;DHT22;9636;47.382;8.480;2022-08-02T20:01:08;22.70;99.90
19007;DHT22;9636;47.382;8.480;2022-08-02T20:03:35;22.70;99.90
19007;DHT22;9636;47.382;8.480;2022-08-02T20:06:04;22.70;99.90
19007;DHT22;9636;47.382;8.480;2022-08-02T20:08:31;22.60;99.90
19007;DHT22;9636;47.382;8.480;2022-08-02T20:10:58;22.60;99.90
19007;DHT22;9636;47.382;8.480;2022-08-02T20:13:26;22.50;99.90
19007;DHT22;9636;47.382;8.480;2022-08-02T20:15:55;22.40;99.90
19007;DHT22;9636;47.382;8.480;2022-08-02T20:18:21;22.30;99.90
19007;DHT22;9636;47.382;8.480;2022-08-02T20:20:50;22.30;99.90
19007;DHT22;9636;47.382;8.480;2022-08-02T20:23:18;22.20;99.90
19007;DHT22;9636;47.382;8.480;2022-08-02T20:25:46;22.20;99.90
19007;DHT22;9636;47.382;8.480;2022-08-02T20:28:13;22.20;99.90
19007;DHT22;9636;47.382;8.480;2022-08-02T20:30:42;22.10;99.90